Pagina principale
METAR-TAF:

METAR-TAF

Aeroporti :

Mannheim, Germania

latitudine: 49-28-21N, longitudine: 008-30-56E, altezza: 100 m

Osservazione

Il bollettino è stato emesso 43 minuti fa, alle 16:50 UTC
Vento 7 kt da est, variando fra nord-est e est/sud-est
Temperature 22°C
Umidità 31%
Pressione 1019 hPa
Visibilità 10 km o più
nessuna nube inferiore a 1500 m e nessun cumulonembo

METAR: EDFM 311650Z 08007KT 040V120 CAVOK 22/04 Q1019

Ora: 19:33 (17:33 UTC)


TAF: mancante

Osservazioni e previsioni meteorologiche di più di 4000 aeroporti (messaggi METAR e TAF).

Le stazioni disponibili sono rappresentate dai dischi gialli e rossi sulla carta.

Puntare il mouse per vedere il nome della stazione.

Clicca sopra per visualizzare le osservazioni e previsioni meteorologiche.

Per cambiare la mappa : fare clic sui pulsanti verdi con una croce nera per ingrandire, il pulsante verde con un trattino per diminuire, o sulla freccia verde per le mappe adiacenti.


METAR-TAF: